Time;durP1;ratioP1;P1;durP2;ratioP2;P2;SDS_P1;SDS_P2;PMS_P1;PMS_P2;Temp;Humidity;BMP_temperature;BMP_pressure;BME280_temperature;BME280_humidity;BME280_pressure;Samples;Min_cycle;Max_cycle;Signal;HPM_P1;HPM_P2
2021/08/11 00:00:12;;;;;;;12.85;11.15;;;13.00;99.90;;;;;;5088786;28;20052;-56
2021/08/11 00:02:40;;;;;;;12.95;11.07;;;13.00;99.90;;;;;;5070330;28;20129;-57
2021/08/11 00:05:07;;;;;;;13.27;11.85;;;13.00;99.90;;;;;;5089214;28;20373;-57
2021/08/11 00:07:34;;;;;;;14.05;10.98;;;13.00;99.90;;;;;;5088935;28;20051;-56
2021/08/11 00:10:03;;;;;;;10.05;9.00;;;13.00;99.90;;;;;;5088992;28;20117;-57
2021/08/11 00:12:35;;;;;;;9.23;7.75;;;12.90;99.90;;;;;;5088096;28;20056;-55
2021/08/11 00:15:12;;;;;;;9.23;8.05;;;12.90;99.90;;;;;;5089148;28;20476;-57
2021/08/11 00:17:39;;;;;;;9.07;7.75;;;12.90;99.90;;;;;;5086998;28;20070;-55
2021/08/11 00:20:06;;;;;;;9.02;7.57;;;12.90;99.90;;;;;;5086042;28;20516;-56
2021/08/11 00:22:32;;;;;;;9.70;8.18;;;12.80;99.90;;;;;;5068634;28;20056;-57
2021/08/11 00:25:04;;;;;;;9.05;7.10;;;12.80;99.90;;;;;;5086629;28;20172;-58
2021/08/11 00:27:30;;;;;;;9.75;8.77;;;12.80;99.90;;;;;;5090532;28;20100;-57
2021/08/11 00:30:00;;;;;;;12.05;10.73;;;12.80;99.90;;;;;;5066733;28;20045;-57
2021/08/11 00:32:32;;;;;;;13.98;11.40;;;12.80;99.90;;;;;;5068734;28;20052;-56
2021/08/11 00:35:06;;;;;;;14.52;12.10;;;12.80;99.90;;;;;;5070771;28;20044;-57
2021/08/11 00:37:36;;;;;;;16.13;12.25;;;12.80;99.90;;;;;;5069111;28;20598;-57
2021/08/11 00:40:05;;;;;;;13.15;11.60;;;12.80;99.90;;;;;;5071625;28;20139;-59
2021/08/11 00:42:35;;;;;;;15.25;12.57;;;12.80;99.90;;;;;;5070230;28;20052;-57
2021/08/11 00:45:04;;;;;;;12.35;11.05;;;12.80;99.90;;;;;;5085510;28;20053;-57
2021/08/11 00:47:36;;;;;;;13.82;10.90;;;12.70;99.90;;;;;;5068257;28;20059;-57
2021/08/11 00:50:06;;;;;;;;;;;12.70;99.90;;;;;;5068204;28;20063;-57
2021/08/11 00:52:37;;;;;;;13.50;12.18;;;12.70;99.90;;;;;;5082136;28;19974;-57
2021/08/11 00:55:09;;;;;;;15.60;11.85;;;12.60;99.90;;;;;;5073658;28;20090;-57
2021/08/11 00:57:37;;;;;;;16.13;12.20;;;12.60;99.90;;;;;;5071989;28;20044;-57
2021/08/11 01:00:06;;;;;;;15.38;11.95;;;12.70;99.90;;;;;;5065910;28;20054;-57
2021/08/11 01:02:35;;;;;;;12.32;11.07;;;12.60;99.90;;;;;;5065404;28;20048;-57
2021/08/11 01:05:02;;;;;;;14.00;12.50;;;12.60;99.90;;;;;;5089416;28;20040;-57
2021/08/11 01:07:31;;;;;;;12.73;10.85;;;12.60;99.90;;;;;;5068121;28;20114;-57
2021/08/11 01:10:05;;;;;;;14.20;12.27;;;12.60;99.90;;;;;;5067460;28;20419;-57
2021/08/11 01:12:34;;;;;;;12.13;9.68;;;12.50;99.90;;;;;;5085469;28;20087;-57
2021/08/11 01:15:04;;;;;;;12.27;9.20;;;12.50;99.90;;;;;;5087652;28;20075;-57
2021/08/11 01:17:31;;;;;;;10.95;8.13;;;12.50;99.90;;;;;;5068931;28;20574;-57
2021/08/11 01:20:05;;;;;;;10.32;9.02;;;12.40;99.90;;;;;;5069638;28;20059;-57
2021/08/11 01:22:45;;;;;;;11.88;9.43;;;12.40;99.90;;;;;;5067943;28;20076;-57
2021/08/11 01:25:27;;;;;;;9.48;8.57;;;12.30;99.90;;;;;;5069548;28;20074;-58
2021/08/11 01:28:33;;;;;;;9.65;8.65;;;12.30;99.90;;;;;;5090277;28;20044;-57
2021/08/11 01:31:08;;;;;;;12.85;10.38;;;12.30;99.90;;;;;;5070423;28;20093;-58
2021/08/11 01:33:48;;;;;;;10.98;8.85;;;12.30;99.90;;;;;;5066699;28;20480;-57
2021/08/11 01:36:33;;;;;;;10.00;9.00;;;12.20;99.90;;;;;;5068469;28;20058;-57
2021/08/11 01:39:25;;;;;;;11.30;8.88;;;12.20;99.90;;;;;;5049328;28;20044;-57
2021/08/11 01:42:24;;;;;;;12.05;9.57;;;12.20;99.90;;;;;;5056044;28;20040;-57
2021/08/11 01:45:20;;;;;;;13.98;9.80;;;12.20;99.90;;;;;;4983929;28;20050;-57
2021/08/11 01:47:58;;;;;;;14.60;10.07;;;12.20;99.90;;;;;;4988634;28;20877;-57
2021/08/11 01:50:29;;;;;;;12.20;9.07;;;12.10;99.90;;;;;;4986988;28;20077;-58
2021/08/11 01:52:57;;;;;;;11.20;8.23;;;12.10;99.90;;;;;;4988149;28;20091;-57
2021/08/11 01:55:28;;;;;;;12.13;9.57;;;12.00;99.90;;;;;;4991847;28;20096;-57
2021/08/11 01:57:55;;;;;;;10.45;8.70;;;12.00;99.90;;;;;;4988279;28;20116;-57
2021/08/11 02:00:32;;;;;;;9.70;7.60;;;12.00;99.90;;;;;;4988212;28;20045;-57
2021/08/11 02:03:09;;;;;;;9.57;7.25;;;12.00;99.90;;;;;;5004837;28;20050;-57
2021/08/11 02:05:45;;;;;;;9.80;8.23;;;11.90;99.90;;;;;;4993837;28;20057;-58
2021/08/11 02:08:17;;;;;;;8.65;7.55;;;11.90;99.90;;;;;;4987266;28;20054;-57
2021/08/11 02:10:48;;;;;;;9.05;7.63;;;11.90;99.90;;;;;;4994442;28;20085;-57
2021/08/11 02:13:19;;;;;;;10.00;6.47;;;11.90;99.90;;;;;;4986397;28;20046;-57
2021/08/11 02:15:53;;;;;;;8.30;6.75;;;11.90;99.90;;;;;;4988894;28;20068;-57
2021/08/11 02:18:23;;;;;;;8.40;7.22;;;11.80;99.90;;;;;;4986889;28;20046;-57
2021/08/11 02:20:56;;;;;;;9.15;8.13;;;11.80;99.90;;;;;;5011672;28;20040;-56
2021/08/11 02:23:26;;;;;;;11.82;8.25;;;11.80;99.90;;;;;;5069825;28;20500;-57
2021/08/11 02:26:06;;;;;;;13.85;8.30;;;11.90;99.90;;;;;;5069982;28;20055;-56
2021/08/11 02:28:59;;;;;;;9.80;8.45;;;11.80;99.90;;;;;;5067794;28;20135;-57
2021/08/11 02:31:32;;;;;;;9.52;8.40;;;11.80;99.90;;;;;;5065886;28;20040;-57
2021/08/11 02:34:08;;;;;;;10.15;9.13;;;11.80;99.90;;;;;;5084808;28;20452;-57
2021/08/11 02:36:48;;;;;;;13.30;10.98;;;11.80;99.90;;;;;;5066968;28;20052;-57
2021/08/11 02:39:22;;;;;;;12.52;10.77;;;11.80;99.90;;;;;;5070422;28;20412;-57
2021/08/11 02:42:13;;;;;;;14.20;12.25;;;11.80;99.90;;;;;;5065962;28;20518;-57
2021/08/11 02:44:48;;;;;;;14.27;12.75;;;11.90;99.90;;;;;;5080291;28;20047;-57
2021/08/11 02:47:16;;;;;;;14.40;11.65;;;11.90;99.90;;;;;;5059447;28;20055;-57
2021/08/11 02:49:44;;;;;;;14.93;11.20;;;11.90;99.90;;;;;;5087025;28;20055;-57
2021/08/11 02:52:14;;;;;;;15.97;13.83;;;11.80;99.90;;;;;;5077800;28;20058;-57
2021/08/11 02:54:41;;;;;;;15.35;12.95;;;11.80;99.90;;;;;;5046267;28;20081;-57
2021/08/11 02:57:12;;;;;;;17.60;13.00;;;11.90;99.90;;;;;;5044270;28;20049;-57
2021/08/11 02:59:39;;;;;;;13.35;11.98;;;11.80;99.90;;;;;;5047814;28;20049;-57
2021/08/11 03:02:09;;;;;;;13.93;11.38;;;11.80;99.90;;;;;;5042827;28;20045;-57
2021/08/11 03:04:39;;;;;;;12.13;10.85;;;11.80;99.90;;;;;;5043799;28;20056;-57
2021/08/11 03:07:08;;;;;;;13.60;11.73;;;11.80;99.90;;;;;;5044212;28;20045;-57
2021/08/11 03:09:35;;;;;;;13.75;12.38;;;11.80;99.90;;;;;;5042936;28;20045;-57
2021/08/11 03:12:05;;;;;;;15.07;12.40;;;11.70;99.90;;;;;;5039267;28;20048;-57
2021/08/11 03:14:33;;;;;;;18.38;13.77;;;11.70;99.90;;;;;;5045460;28;20212;-56
2021/08/11 03:17:00;;;;;;;16.35;13.38;;;11.70;99.90;;;;;;5043871;28;20048;-56
2021/08/11 03:19:27;;;;;;;18.98;15.05;;;11.70;99.90;;;;;;5046859;28;20049;-57
2021/08/11 03:21:54;;;;;;;16.80;14.52;;;11.70;99.90;;;;;;5048280;28;20414;-57
2021/08/11 03:24:20;;;;;;;16.95;14.57;;;11.70;99.90;;;;;;5060429;28;20100;-56
2021/08/11 03:26:50;;;;;;;14.90;13.32;;;11.70;99.90;;;;;;5044247;28;20053;-56
2021/08/11 03:29:51;;;;;;;15.82;13.25;;;11.70;99.90;;;;;;4984726;28;20086;-56
2021/08/11 03:32:20;;;;;;;15.57;12.63;;;11.60;99.90;;;;;;4967980;28;20054;-56
2021/08/11 03:34:46;;;;;;;15.98;12.13;;;11.60;99.90;;;;;;4983987;28;20521;-56
2021/08/11 03:37:17;;;;;;;14.23;12.73;;;11.60;99.90;;;;;;4972801;28;20228;-56
2021/08/11 03:39:48;;;;;;;18.45;11.73;;;11.60;99.90;;;;;;4971302;28;20694;-56
2021/08/11 03:42:18;;;;;;;15.85;13.23;;;11.60;99.90;;;;;;4969129;28;20054;-56
2021/08/11 03:44:46;;;;;;;21.25;14.85;;;11.60;99.90;;;;;;4970773;28;20051;-56
2021/08/11 03:47:15;;;;;;;17.05;14.95;;;11.70;99.90;;;;;;4986771;28;20046;-56
2021/08/11 03:49:50;;;;;;;21.95;15.65;;;11.70;99.90;;;;;;4990358;28;20050;-56
2021/08/11 03:52:19;;;;;;;20.05;15.75;;;11.80;99.90;;;;;;4970200;28;20058;-56
2021/08/11 03:54:51;;;;;;;19.40;15.13;;;11.80;99.90;;;;;;4978234;28;20061;-56
2021/08/11 03:57:20;;;;;;;17.95;14.00;;;11.80;99.90;;;;;;4981071;28;20058;-57
2021/08/11 03:59:47;;;;;;;19.88;15.93;;;11.80;99.90;;;;;;4988571;28;20163;-56
2021/08/11 04:02:17;;;;;;;20.13;15.93;;;11.90;99.90;;;;;;4971459;28;20058;-57
2021/08/11 04:04:43;;;;;;;22.42;17.60;;;11.90;99.90;;;;;;5000414;28;20070;-56
2021/08/11 04:07:10;;;;;;;25.60;20.02;;;11.90;99.90;;;;;;5049710;28;20060;-56
2021/08/11 04:09:39;;;;;;;25.40;19.60;;;12.00;99.90;;;;;;5048027;28;20045;-56
2021/08/11 04:12:10;;;;;;;20.98;18.70;;;12.10;99.90;;;;;;5048624;28;20053;-56
2021/08/11 04:14:39;;;;;;;22.95;19.73;;;12.20;99.90;;;;;;5049012;28;20064;-56
2021/08/11 04:17:07;;;;;;;21.90;19.48;;;12.20;99.90;;;;;;5049033;28;20052;-57
2021/08/11 04:19:36;;;;;;;25.48;20.42;;;12.20;99.90;;;;;;5047739;28;20056;-57
2021/08/11 04:22:02;;;;;;;24.15;19.50;;;12.20;99.90;;;;;;5048647;28;20049;-57
2021/08/11 04:24:33;;;;;;;23.58;19.58;;;12.30;99.90;;;;;;5049197;28;20199;-57
2021/08/11 04:27:02;;;;;;;20.50;18.27;;;12.30;99.90;;;;;;5047206;28;20497;-57
2021/08/11 04:29:31;;;;;;;20.60;18.40;;;12.30;99.90;;;;;;5046078;28;20045;-57
2021/08/11 04:32:00;;;;;;;21.60;17.67;;;12.30;99.90;;;;;;5057383;28;20094;-57
2021/08/11 04:34:29;;;;;;;20.60;16.52;;;12.30;99.90;;;;;;5066183;28;20055;-56
2021/08/11 04:36:57;;;;;;;22.58;17.55;;;12.30;99.90;;;;;;5058066;28;20060;-57
2021/08/11 04:39:23;;;;;;;21.98;18.95;;;12.30;99.90;;;;;;5049947;28;20102;-57
2021/08/11 04:42:05;;;;;;;20.85;18.10;;;12.30;99.90;;;;;;5034469;28;20052;-57
2021/08/11 04:44:31;;;;;;;22.17;19.67;;;12.30;99.90;;;;;;5053410;28;20110;-58
2021/08/11 04:46:59;;;;;;;24.63;20.85;;;12.40;99.90;;;;;;5053026;28;20053;-57
2021/08/11 04:49:25;;;;;;;21.90;17.58;;;12.40;99.90;;;;;;5048232;28;20489;-61
2021/08/11 04:51:54;;;;;;;22.60;18.42;;;12.40;99.90;;;;;;5052365;28;20055;-61
2021/08/11 04:54:22;;;;;;;21.95;19.08;;;12.40;99.90;;;;;;5070378;28;20060;-60
2021/08/11 04:56:48;;;;;;;25.23;17.92;;;12.50;99.90;;;;;;5088706;28;20075;-60
2021/08/11 04:59:16;;;;;;;20.58;18.33;;;12.60;99.90;;;;;;5086489;28;20052;-60
2021/08/11 05:01:45;;;;;;;23.77;19.05;;;12.60;99.90;;;;;;5082456;28;20043;-60
2021/08/11 05:04:11;;;;;;;22.83;19.38;;;12.60;99.90;;;;;;5087571;28;20071;-60
2021/08/11 05:06:37;;;;;;;22.38;17.83;;;12.60;99.90;;;;;;5088496;28;20138;-61
2021/08/11 05:09:04;;;;;;;20.15;17.88;;;12.60;99.90;;;;;;5087336;28;20140;-58
2021/08/11 05:11:30;;;;;;;21.15;18.42;;;12.60;99.90;;;;;;5087903;28;20071;-61
2021/08/11 05:13:56;;;;;;;22.73;18.30;;;12.60;99.90;;;;;;5087946;28;20048;-61
2021/08/11 05:16:23;;;;;;;21.48;18.52;;;12.60;99.90;;;;;;5088229;28;20055;-60
2021/08/11 05:18:49;;;;;;;20.08;18.00;;;12.70;99.90;;;;;;5091093;28;20044;-59
2021/08/11 05:21:15;;;;;;;21.70;18.42;;;12.70;99.90;;;;;;5086943;28;20744;-60
2021/08/11 05:23:41;;;;;;;21.77;18.80;;;12.80;99.90;;;;;;5088267;28;20052;-61
2021/08/11 05:26:07;;;;;;;25.27;18.42;;;12.90;99.90;;;;;;5089700;28;20040;-61
2021/08/11 05:28:36;;;;;;;20.15;17.27;;;13.20;99.90;;;;;;5091121;28;20598;-59
2021/08/11 05:31:02;;;;;;;20.27;16.38;;;13.40;99.90;;;;;;5067899;28;20064;-61
2021/08/11 05:33:28;;;;;;;19.92;17.27;;;13.60;99.90;;;;;;5059255;28;20763;-60
2021/08/11 05:35:55;;;;;;;19.63;17.23;;;13.80;99.90;;;;;;5087857;28;20143;-61
2021/08/11 05:38:21;;;;;;;17.77;15.10;;;13.90;99.90;;;;;;5086982;28;20413;-59
2021/08/11 05:40:48;;;;;;;15.98;14.32;;;14.10;99.90;;;;;;5087473;28;20159;-61
2021/08/11 05:43:15;;;;;;;16.80;14.75;;;14.30;99.90;;;;;;5085702;28;20420;-60
2021/08/11 05:45:41;;;;;;;19.90;13.43;;;14.50;99.90;;;;;;5087472;28;20052;-61
2021/08/11 05:48:09;;;;;;;16.85;14.95;;;14.60;99.90;;;;;;5087523;28;20056;-60
2021/08/11 05:50:35;;;;;;;15.80;12.70;;;14.80;99.90;;;;;;5087153;28;20440;-62
2021/08/11 05:53:02;;;;;;;15.90;13.77;;;15.00;99.90;;;;;;5086850;28;20560;-61
2021/08/11 05:55:29;;;;;;;15.30;13.75;;;15.10;99.90;;;;;;5085947;28;20063;-60
2021/08/11 05:57:56;;;;;;;15.05;12.30;;;15.30;99.90;;;;;;5093139;28;20492;-62
2021/08/11 06:00:22;;;;;;;16.88;13.63;;;15.50;99.90;;;;;;5094012;28;20493;-59
2021/08/11 06:02:48;;;;;;;14.32;12.73;;;15.70;99.90;;;;;;5086188;28;20050;-61
2021/08/11 06:05:41;;;;;;;14.77;12.50;;;15.80;99.90;;;;;;5075716;28;20059;-61
2021/08/11 06:08:07;;;;;;;15.18;12.63;;;16.00;99.90;;;;;;5070733;28;20590;-61
2021/08/11 06:10:33;;;;;;;15.07;12.32;;;16.30;99.90;;;;;;5091664;28;20116;-61
2021/08/11 06:13:00;;;;;;;12.85;11.40;;;16.50;99.90;;;;;;5086648;28;20056;-60
2021/08/11 06:15:27;;;;;;;13.07;11.65;;;16.60;99.90;;;;;;5083601;28;20916;-61
2021/08/11 06:17:53;;;;;;;56.92;49.05;;;16.70;99.90;;;;;;5084973;28;20048;-61
2021/08/11 06:20:21;;;;;;;28.52;24.52;;;16.90;99.90;;;;;;5090075;28;20768;-59
2021/08/11 06:22:48;;;;;;;16.60;13.80;;;17.20;99.90;;;;;;5086544;28;20044;-60
2021/08/11 06:25:16;;;;;;;23.15;19.55;;;17.30;99.90;;;;;;5084570;28;20051;-60
2021/08/11 06:27:45;;;;;;;13.45;11.50;;;17.50;99.90;;;;;;5067272;28;20052;-60
2021/08/11 06:30:13;;;;;;;21.30;19.10;;;17.60;99.90;;;;;;5068744;28;20496;-61
2021/08/11 06:32:43;;;;;;;19.27;14.57;;;17.80;99.90;;;;;;5066817;28;20056;-61
2021/08/11 06:35:10;;;;;;;17.13;14.40;;;18.00;99.90;;;;;;5085146;28;20176;-61
2021/08/11 06:37:48;;;;;;;14.95;13.00;;;18.20;99.90;;;;;;5086276;28;20048;-61
2021/08/11 06:40:18;;;;;;;15.40;13.25;;;18.20;99.90;;;;;;5087582;28;20079;-60
2021/08/11 06:42:46;;;;;;;16.98;12.07;;;18.10;99.90;;;;;;5087259;28;20454;-61
2021/08/11 06:45:19;;;;;;;15.15;12.55;;;18.20;99.90;;;;;;5053443;28;20278;-62
2021/08/11 06:47:49;;;;;;;24.60;21.85;;;18.20;99.90;;;;;;5071760;28;20082;-62
2021/08/11 06:50:20;;;;;;;12.80;11.02;;;18.50;99.90;;;;;;5069246;28;20056;-61
2021/08/11 06:52:49;;;;;;;11.80;10.38;;;18.80;99.90;;;;;;5075898;28;20059;-60
2021/08/11 06:55:21;;;;;;;15.15;11.20;;;19.10;99.90;;;;;;5075086;28;20059;-61
2021/08/11 06:57:49;;;;;;;15.75;14.15;;;19.30;99.90;;;;;;5086681;28;20054;-60
2021/08/11 07:00:20;;;;;;;10.93;9.82;;;19.10;99.90;;;;;;5090471;28;20048;-59
2021/08/11 07:02:47;;;;;;;33.28;29.63;;;19.10;99.90;;;;;;5090103;28;20051;-59
2021/08/11 07:05:16;;;;;;;13.05;11.10;;;18.80;99.90;;;;;;5087271;28;20044;-60
2021/08/11 07:07:45;;;;;;;37.33;33.45;;;18.70;99.90;;;;;;5087328;28;20162;-61
2021/08/11 07:10:15;;;;;;;11.50;10.30;;;18.90;99.90;;;;;;5086938;28;20578;-61
2021/08/11 07:12:43;;;;;;;16.90;12.18;;;19.20;99.90;;;;;;5085670;28;20051;-61
2021/08/11 07:15:11;;;;;;;13.88;11.23;;;19.60;99.90;;;;;;5075833;28;20053;-61
2021/08/11 07:17:49;;;;;;;12.70;10.63;;;20.00;99.90;;;;;;5088809;28;20493;-61
2021/08/11 07:20:16;;;;;;;20.88;16.25;;;20.40;99.90;;;;;;5090387;28;20052;-59
2021/08/11 07:22:42;;;;;;;13.93;11.98;;;20.70;99.90;;;;;;5091341;28;20055;-56
2021/08/11 07:25:14;;;;;;;13.27;9.77;;;21.00;99.90;;;;;;5092485;28;20040;-55
2021/08/11 07:27:40;;;;;;;10.90;9.52;;;20.90;99.90;;;;;;5091222;28;20047;-55
2021/08/11 07:30:07;;;;;;;11.68;9.80;;;21.10;99.90;;;;;;5090995;28;20055;-57
2021/08/11 07:32:36;;;;;;;18.42;15.45;;;21.10;99.90;;;;;;5091031;28;20052;-56
2021/08/11 07:35:03;;;;;;;53.45;47.75;;;21.40;99.90;;;;;;5091118;28;20048;-56
2021/08/11 07:37:32;;;;;;;24.50;22.00;;;21.40;99.90;;;;;;5091323;28;20040;-56
2021/08/11 07:40:01;;;;;;;15.63;13.27;;;21.80;99.90;;;;;;5090852;28;20568;-56
2021/08/11 07:42:31;;;;;;;15.02;12.15;;;21.80;99.90;;;;;;5076019;28;20048;-54
2021/08/11 07:45:00;;;;;;;13.18;10.93;;;21.50;99.90;;;;;;5090581;28;20053;-55
2021/08/11 07:47:26;;;;;;;12.38;9.18;;;21.30;99.90;;;;;;5091165;28;20060;-56
2021/08/11 07:49:55;;;;;;;11.15;8.30;;;21.10;99.90;;;;;;5088981;28;20044;-57
2021/08/11 07:52:21;;;;;;;12.55;8.73;;;21.10;99.90;;;;;;5089943;28;20063;-58
2021/08/11 07:54:48;;;;;;;10.85;8.68;;;21.40;99.90;;;;;;5089975;28;20085;-53
2021/08/11 07:57:17;;;;;;;13.75;12.32;;;21.30;99.90;;;;;;5089802;28;20056;-56
2021/08/11 07:59:44;;;;;;;10.90;8.65;;;21.40;99.90;;;;;;5090040;28;20059;-56
2021/08/11 08:02:11;;;;;;;13.00;11.48;;;21.50;99.90;;;;;;5089386;28;20063;-55
2021/08/11 08:04:43;;;;;;;9.82;7.93;;;21.50;99.90;;;;;;5091393;28;20039;-56
2021/08/11 08:07:19;;;;;;;18.70;15.57;;;21.30;99.90;;;;;;5092816;28;20561;-56
2021/08/11 08:09:46;;;;;;;10.82;8.85;;;21.20;99.90;;;;;;5089915;28;20048;-56
2021/08/11 08:12:13;;;;;;;9.13;6.78;;;21.10;99.90;;;;;;5094334;28;20044;-57
2021/08/11 08:14:40;;;;;;;7.97;7.18;;;21.20;99.90;;;;;;5090108;28;20144;-56
2021/08/11 08:17:06;;;;;;;8.50;6.88;;;21.60;99.90;;;;;;5089920;28;20048;-58
2021/08/11 08:19:32;;;;;;;11.07;8.07;;;22.00;99.90;;;;;;5088026;28;20040;-55
2021/08/11 08:21:58;;;;;;;9.18;7.53;;;22.20;99.90;;;;;;5094142;28;20389;-54
2021/08/11 08:24:24;;;;;;;11.20;8.48;;;22.40;99.90;;;;;;5089235;28;20504;-56
2021/08/11 08:26:53;;;;;;;12.63;8.60;;;22.50;99.90;;;;;;5097203;28;20051;-55
2021/08/11 08:29:21;;;;;;;10.20;7.35;;;22.30;99.90;;;;;;5090680;28;20105;-56
2021/08/11 08:31:50;;;;;;;9.25;7.72;;;22.50;99.90;;;;;;5089474;28;20052;-56
2021/08/11 08:34:16;;;;;;;13.13;11.60;;;22.50;99.90;;;;;;5088925;28;20044;-58
2021/08/11 08:36:42;;;;;;;15.75;11.95;;;22.50;99.90;;;;;;5089492;28;20059;-55
2021/08/11 08:39:11;;;;;;;12.40;7.68;;;22.70;99.90;;;;;;5096593;28;20083;-57
2021/08/11 08:41:45;;;;;;;11.00;8.85;;;22.50;99.90;;;;;;5088313;28;20563;-55
2021/08/11 08:44:14;;;;;;;18.48;15.63;;;22.10;99.90;;;;;;5069415;28;20052;-56
2021/08/11 08:46:42;;;;;;;13.77;10.32;;;22.20;99.90;;;;;;5092384;28;20048;-56
2021/08/11 08:49:09;;;;;;;10.73;9.25;;;22.20;99.90;;;;;;5070384;28;20076;-60
2021/08/11 08:51:43;;;;;;;10.70;8.05;;;22.10;99.90;;;;;;5094320;28;20072;-59
2021/08/11 08:54:11;;;;;;;8.65;6.07;;;22.30;99.90;;;;;;5070985;28;20834;-59
2021/08/11 08:56:40;;;;;;;7.10;5.95;;;22.10;99.90;;;;;;5070728;28;20056;-59
2021/08/11 08:59:09;;;;;;;8.40;5.38;;;22.20;99.90;;;;;;5091620;28;20407;-59
2021/08/11 09:01:36;;;;;;;7.43;5.53;;;21.90;99.90;;;;;;5093074;28;20444;-59
2021/08/11 09:04:03;;;;;;;8.27;5.20;;;22.20;99.90;;;;;;5093029;28;20463;-59
2021/08/11 09:06:39;;;;;;;8.77;4.75;;;22.30;99.90;;;;;;5096126;28;20488;-60
2021/08/11 09:09:11;;;;;;;7.32;4.80;;;22.20;99.90;;;;;;5071444;28;20059;-59
2021/08/11 09:11:40;;;;;;;9.48;5.22;;;22.10;99.50;;;;;;5088698;28;20059;-60
2021/08/11 09:14:25;;;;;;;8.60;5.22;;;21.80;99.90;;;;;;5091316;28;20086;-60
2021/08/11 09:16:56;;;;;;;7.35;5.00;;;21.80;99.90;;;;;;5089025;28;20620;-58
2021/08/11 09:19:23;;;;;;;8.27;4.97;;;21.70;99.90;;;;;;5093682;28;20119;-59
2021/08/11 09:22:04;;;;;;;7.88;5.32;;;21.80;99.90;;;;;;5095291;28;20044;-60
2021/08/11 09:24:35;;;;;;;7.68;4.68;;;21.80;99.90;;;;;;5088353;28;20126;-59
2021/08/11 09:27:24;;;;;;;8.70;5.47;;;21.80;99.90;;;;;;5088984;28;20048;-59
2021/08/11 09:30:06;;;;;;;7.75;4.57;;;21.60;99.30;;;;;;5090117;28;20073;-59
2021/08/11 09:32:46;;;;;;;7.88;5.38;;;21.90;99.90;;;;;;5087694;28;20052;-59
2021/08/11 09:35:13;;;;;;;9.70;5.07;;;22.00;99.70;;;;;;5090013;28;20067;-59
2021/08/11 09:37:42;;;;;;;7.75;4.95;;;22.10;98.20;;;;;;5088017;28;20056;-58
2021/08/11 09:40:14;;;;;;;7.78;4.70;;;22.30;98.70;;;;;;5088016;28;20048;-59
2021/08/11 09:42:42;;;;;;;8.27;5.32;;;22.90;96.80;;;;;;5087989;28;20055;-59
2021/08/11 09:45:09;;;;;;;8.48;5.20;;;23.20;93.60;;;;;;5087755;28;20139;-59
2021/08/11 09:47:53;;;;;;;9.48;5.63;;;23.40;91.90;;;;;;5090538;28;20052;-59
2021/08/11 09:50:31;;;;;;;7.45;5.43;;;23.90;90.50;;;;;;5092124;28;20051;-60
2021/08/11 09:52:58;;;;;;;8.23;5.43;;;24.40;89.40;;;;;;5087134;28;20056;-60
2021/08/11 09:55:29;;;;;;;7.80;5.50;;;25.20;88.00;;;;;;5087905;28;20098;-60
2021/08/11 09:57:57;;;;;;;7.72;5.28;;;25.50;79.20;;;;;;5087916;28;20050;-59
2021/08/11 10:00:38;;;;;;;6.30;4.72;;;25.80;83.10;;;;;;5087090;28;20063;-60
2021/08/11 10:03:04;;;;;;;8.77;5.70;;;26.00;75.70;;;;;;5090563;28;20087;-60
2021/08/11 10:05:37;;;;;;;7.45;5.13;;;26.20;73.60;;;;;;5087036;28;20070;-59
2021/08/11 10:08:05;;;;;;;8.95;5.05;;;26.40;76.00;;;;;;5093845;28;20066;-58
2021/08/11 10:10:48;;;;;;;9.50;5.40;;;26.50;75.10;;;;;;5086981;28;20073;-60
2021/08/11 10:13:20;;;;;;;9.23;4.75;;;26.50;66.70;;;;;;5084139;28;20499;-58
2021/08/11 10:15:49;;;;;;;6.82;4.38;;;26.30;66.30;;;;;;5067687;28;20048;-59
2021/08/11 10:18:23;;;;;;;7.35;4.88;;;26.10;68.70;;;;;;5087201;28;20120;-58
2021/08/11 10:20:58;;;;;;;7.32;4.63;;;26.50;68.90;;;;;;5087904;28;20130;-60
2021/08/11 10:23:25;;;;;;;6.85;4.18;;;26.30;66.20;;;;;;5086930;28;20097;-60
2021/08/11 10:25:51;;;;;;;8.10;5.10;;;26.30;64.00;;;;;;5086757;28;20522;-60
2021/08/11 10:28:19;;;;;;;7.95;4.55;;;26.30;63.90;;;;;;5087211;28;20048;-59
2021/08/11 10:30:47;;;;;;;7.82;4.95;;;26.10;66.20;;;;;;5067526;28;20133;-58
2021/08/11 10:33:16;;;;;;;6.93;4.55;;;25.80;65.10;;;;;;5085304;28;20109;-59
2021/08/11 10:35:47;;;;;;;6.85;5.35;;;25.90;67.10;;;;;;5090006;28;20061;-60
2021/08/11 10:38:17;;;;;;;11.48;5.47;;;25.50;67.90;;;;;;5087276;28;20048;-59
2021/08/11 10:40:50;;;;;;;7.72;4.68;;;25.60;68.10;;;;;;5085726;28;20204;-59
2021/08/11 10:43:17;;;;;;;7.68;4.93;;;25.90;66.60;;;;;;5086913;28;20087;-59
2021/08/11 10:45:52;;;;;;;7.75;5.13;;;26.10;66.40;;;;;;5086913;28;20071;-59
2021/08/11 10:48:20;;;;;;;8.00;5.50;;;25.90;64.70;;;;;;5087878;28;20040;-61
2021/08/11 10:50:47;;;;;;;7.07;4.75;;;26.00;64.70;;;;;;5095161;28;20045;-60
2021/08/11 10:53:13;;;;;;;8.57;4.85;;;26.60;67.00;;;;;;5097837;28;20040;-59
2021/08/11 10:55:46;;;;;;;7.30;4.70;;;26.90;63.40;;;;;;5090057;28;20079;-60
2021/08/11 10:58:34;;;;;;;7.85;4.57;;;27.00;61.20;;;;;;5090957;28;20056;-60
2021/08/11 11:01:06;;;;;;;8.10;4.43;;;26.90;60.20;;;;;;5089652;28;20419;-60
2021/08/11 11:03:52;;;;;;;6.47;3.92;;;27.20;59.40;;;;;;5095561;28;20136;-60
2021/08/11 11:06:19;;;;;;;8.82;6.78;;;27.50;60.10;;;;;;5092964;28;20523;-56
2021/08/11 11:08:46;;;;;;;11.02;8.48;;;27.90;62.20;;;;;;5091164;28;20059;-57
2021/08/11 11:11:30;;;;;;;9.02;6.43;;;27.70;60.50;;;;;;5091281;28;20752;-57
2021/08/11 11:13:56;;;;;;;5.93;4.75;;;27.90;58.90;;;;;;5091333;28;20586;-58
2021/08/11 11:17:03;;;;;;;8.35;5.40;;;27.70;60.70;;;;;;5091621;28;20488;-55
2021/08/11 11:19:34;;;;;;;7.50;5.85;;;28.20;60.00;;;;;;5071616;28;20135;-52
2021/08/11 11:22:34;;;;;;;8.65;7.18;;;28.90;60.20;;;;;;5088793;28;20048;-56
2021/08/11 11:25:00;;;;;;;5.82;5.00;;;29.10;55.70;;;;;;5070569;28;20048;-56
2021/08/11 11:27:42;;;;;;;8.97;5.57;;;29.00;56.00;;;;;;5079032;28;20129;-55
2021/08/11 11:30:13;;;;;;;5.22;3.25;;;28.60;54.40;;;;;;5089763;28;20044;-56
2021/08/11 11:32:39;;;;;;;;;;;28.50;56.30;;;;;;5096706;28;20503;-62
2021/08/11 11:35:17;;;;;;;4.13;2.45;;;28.60;55.10;;;;;;5090111;28;19924;-63
2021/08/11 11:37:45;;;;;;;4.80;2.85;;;28.40;54.10;;;;;;5090384;28;20047;-62
2021/08/11 11:40:17;;;;;;;8.15;3.70;;;28.60;55.70;;;;;;5094222;28;20067;-62
2021/08/11 11:42:46;;;;;;;5.85;2.80;;;28.30;55.00;;;;;;5090191;28;20055;-62
2021/08/11 11:45:14;;;;;;;3.90;2.65;;;28.40;57.20;;;;;;5097322;28;20044;-58
2021/08/11 11:47:46;;;;;;;4.45;2.65;;;28.20;54.50;;;;;;5089665;28;20373;-57
2021/08/11 11:50:22;;;;;;;5.82;2.55;;;28.00;54.70;;;;;;5091556;28;20494;-59
2021/08/11 11:52:49;;;;;;;4.72;3.10;;;27.70;56.40;;;;;;5090249;28;20043;-60
2021/08/11 11:55:28;;;;;;;3.88;2.63;;;27.90;56.90;;;;;;5092202;28;20467;-59
2021/08/11 11:57:55;;;;;;;4.28;2.80;;;28.30;54.80;;;;;;5093238;28;20147;-57
2021/08/11 12:00:24;;;;;;;5.22;2.70;;;28.30;55.40;;;;;;5087720;28;20511;-58
2021/08/11 12:02:57;;;;;;;6.28;2.92;;;28.40;58.10;;;;;;5080557;28;20048;-58
2021/08/11 12:05:24;;;;;;;7.10;5.53;;;28.30;58.10;;;;;;5091489;28;20082;-59
2021/08/11 12:07:54;;;;;;;6.43;5.55;;;28.60;57.20;;;;;;5076965;28;20051;-60
2021/08/11 12:10:31;;;;;;;4.78;3.67;;;28.80;53.00;;;;;;5086989;28;20051;-59
2021/08/11 12:13:06;;;;;;;9.50;6.95;;;28.50;54.70;;;;;;5089304;28;20048;-61
2021/08/11 12:15:40;;;;;;;5.70;3.70;;;28.60;55.30;;;;;;5081090;28;20048;-60
2021/08/11 12:18:25;;;;;;;4.90;2.70;;;29.20;54.60;;;;;;5082764;28;20056;-58
2021/08/11 12:20:59;;;;;;;5.90;3.33;;;29.40;52.60;;;;;;5087625;28;20052;-59
2021/08/11 12:23:27;;;;;;;9.30;8.10;;;29.40;53.20;;;;;;5070303;28;20055;-59
2021/08/11 12:26:00;;;;;;;6.25;2.60;;;29.70;52.20;;;;;;5087583;28;20083;-59
2021/08/11 12:28:33;;;;;;;5.35;3.53;;;30.00;51.00;;;;;;5086906;28;20040;-60
2021/08/11 12:31:24;;;;;;;7.35;6.15;;;30.10;50.80;;;;;;5088281;28;20052;-59
2021/08/11 12:34:01;;;;;;;7.88;6.72;;;29.70;49.60;;;;;;5081027;28;20048;-60
2021/08/11 12:36:35;;;;;;;3.25;2.25;;;30.00;48.30;;;;;;5088804;28;20040;-60
2021/08/11 12:39:18;;;;;;;5.00;3.05;;;30.00;51.10;;;;;;5086818;28;20052;-61
2021/08/11 12:41:58;;;;;;;8.30;5.45;;;29.60;49.70;;;;;;5086146;28;20101;-61
2021/08/11 12:44:27;;;;;;;6.03;3.50;;;30.10;49.70;;;;;;5080976;28;20044;-60
2021/08/11 12:46:58;;;;;;;5.65;3.65;;;30.20;49.40;;;;;;5091827;28;20073;-62
2021/08/11 12:49:28;;;;;;;5.78;3.40;;;30.40;48.90;;;;;;5081136;28;20117;-60
2021/08/11 12:52:09;;;;;;;;;;;30.40;49.10;;;;;;5084160;28;20512;-60
2021/08/11 12:54:59;;;;;;;8.70;7.20;;;30.20;50.10;;;;;;5045393;28;1235144;-59